Triathlon de Bouzigues - 14/06/2015

S


Pl Do. Nom - Surname Prénom - Name S-Cat /cat Club - Team TEMPS - Time /sx P1 Tps1 Vit1 P2 Tps2 Vit2 P3 Tps3 Vit3
1 295 JORRY SÉBASTIEN MS2 1 ASPH 1:21:49.45 1 7 0:10:07 4,1 1 0:51:35 20,9 4 0:20:06 14,9
2 274 MAUREL ALEXIS MS1 1 MAT 1:26:53.88 2 15 0:11:00 3,8 2 0:54:42 19,7 7 0:21:10 14,2
3 202 GUERIN JEAN-CLAUDE MV1 1 MAUGUIO CARNON TRIATHLON 1:28:21.81 3 10 0:10:32 4,0 4 0:58:15 18,5 2 0:19:33 15,3
4 285 COUTELET GILLES MS4 1 MAUGUIO CARNON TRIATHLON 1:29:59.49 4 5 0:10:05 4,2 5 0:58:44 18,4 6 0:21:09 14,2
5 252 REBOUL QUENTIN MCA 1 Vélo Club Salindres (NL) 1:35:07.47 5 8 0:10:21 4,1 8 1:02:02 17,4 17 0:22:44 13,2
6 276 CASTELLANE LIONEL MV2 1 CARNON MAUGUIO TRIATHLON 1:36:02.51 6 28 0:11:59 3,5 3 0:57:09 18,9 60 0:26:52 11,2
7 208 ARCELLA LAURENT MV2 2 Loupian tri nature 1:37:14.85 7 2 0:09:30 4,4 10 1:03:02 17,1 32 0:24:42 12,1
8 322 LECLÈRE VALENTIN MCA 2 NL 1:38:34.98 8 64 0:13:44 3,1 11 1:03:03 17,1 10 0:21:47 13,8
9 320 BANON PHILIPPE MV2 3 LES CHAMEAUX DE BEZIERS 1:38:37.91 9 19 0:11:41 3,6 12 1:05:02 16,6 11 0:21:54 13,7
10 254 ARTAUD JEAN-MICHEL MV3 1 cap melgueil (NL) 1:42:23.27 10 89 0:16:24 2,6 7 1:00:43 17,8 40 0:25:15 11,9
11 267 GALLOCCHIO JOEL MV1 2 Crocos d'airain nimes triathlon 1:42:37.28 11 30 0:12:04 3,5 16 1:08:13 15,8 12 0:22:19 13,4
12 288 PONS PASCAL MV1 3 NL 1:42:46.90 12 21 0:11:43 3,6 14 1:05:26 16,5 45 0:25:36 11,7
13 323 FARINAU CHRISTOPHE MS4 2 ASPH 1:44:08.49 13 25 0:11:55 3,5 18 1:09:29 15,5 16 0:22:42 13,2
14 201 LACROIX SYLVAIN MV1 4 LES CHAMEAUX DE BEZIERS 1:44:36.77 14 20 0:11:41 3,6 20 1:10:27 15,3 13 0:22:27 13,4
15 221 IBANEZ DOMINIQUE MV2 4 ENTENTE POUSSAN BALARUC (NL) 1:47:29.13 15 75 0:14:34 2,9 19 1:09:43 15,5 20 0:23:10 12,9
16 289 ARCHAMBAULT GILLES MV4 1 MAT 1:47:44.69 16 17 0:11:39 3,6 21 1:12:43 14,9 23 0:23:21 12,8
17 312 GIRAUD THIERRY MS4 3 NL 1:48:44.63 17 76 0:14:35 2,9 17 1:08:36 15,7 44 0:25:32 11,7
18 206 BERGER PATRICE MS4 4 MAUGUIO CARNON TRIATHLON 1:49:56.74 18 13 0:10:54 3,8 26 1:16:24 14,1 14 0:22:37 13,3
19 304 JOUVET SYLVAIN MS3 1 NL 1:50:47.93 19 29 0:12:02 3,5 22 1:13:43 14,6 36 0:25:02 12,0
20 251 SERRA GÉRARD MV4 2 Crocos d'airain nimes triathlon 1:52:57.89 20                  
21 236 LAPEYRONIE BRUNO MV1 5 NL 1:56:43.76 21 11 0:10:33 4,0 44 1:24:52 12,7 8 0:21:17 14,1
22 270 GORBATOFF GEORGES MV1 6 NL 1:57:11.70 22 45 0:13:02 3,2 27 1:19:17 13,6 34 0:24:51 12,1
23 283 WROBEL FRÉDÉRIC MV1 7 NL 1:57:45.89 23 31 0:12:07 3,5 28 1:20:00 13,5 46 0:25:38 11,7
24 209 MASBERNARD MATHIEU MS2 2 Cevennes endurance 1:58:24.00 24 51 0:13:21 3,1 39 1:23:20 13,0 9 0:21:42 13,8
25 321 NOCUS LAURENT MV2 5 NL 1:58:40.96 25 85 0:16:06 2,6 25 1:16:11 14,2 54 0:26:22 11,4
26 294 AVIZOU PHILIPPE MV1 8 TRI RUN FRONTIGNAN 1:59:00.03 26 59 0:13:38 3,1 32 1:21:47 13,2 26 0:23:33 12,7
27 271 LEDUC ARNAUD MV1 9 ENTENTE POUSSAN BALARUC (NL) 1:59:26.02 27 103 0:17:54 2,3 29 1:20:27 13,4 5 0:21:03 14,2
28 310 DURST DAVID MV1 10 NL 2:00:27.43 28 43 0:12:54 3,3 34 1:22:07 13,1 42 0:25:24 11,8
29 290 ARONDEL SÉBASTIEN MS2 3 Grand Narbonne triathlon 2:00:41.31 29 4 0:10:03 4,2 64 1:30:37 11,9 3 0:20:00 15,0
30 316 GAYE MATHIEU MS2 4 NL 2:01:17.70 30 99 0:17:29 2,4 24 1:15:47 14,3 69 0:28:01 10,7
31 262 CANOVAS ARNAUD MS3 2 NL 2:01:24.77 31 49 0:13:12 3,2 42 1:24:00 12,9 30 0:24:12 12,4
32 235 CLAUZIER FRÉDÉRICK MS3 3 NL 2:01:25.02 32 24 0:11:51 3,5 31 1:21:26 13,3 70 0:28:07 10,7
33 245 SANCHEZ FRANÇOIS MV2 6 Bol d'air Gignacois (NL) 2:01:42.67 33 57 0:13:36 3,1 43 1:24:49 12,7 21 0:23:16 12,9
34 266 BERRUS CHRIS MV4 3 Crocos d'airain nimes triathlon 2:03:13.29 34 46 0:13:03 3,2 35 1:22:19 13,1 66 0:27:50 10,8
35 306 ASCIONE JEAN-CHRISTOPHE MS4 5 (USA Triathlon) NL 2:04:29.66 35 6 0:10:06 4,2 48 1:28:22 12,2 50 0:26:01 11,5
36 233 ALLEGRE WILLY MS4 6 NL 2:05:10.06 36 1 0:09:14 4,5 49 1:28:25 12,2 64 0:27:30 10,9
37 248 DELACHAT FABIEN MS3 4 NL 2:06:08.63 37 69 0:13:58 3,0 53 1:29:30 12,1 15 0:22:39 13,2
38 317 GIROUD FREDERIC MV2 7 NL 2:06:36.96 38 92 0:16:56 2,5 40 1:23:22 13,0 52 0:26:17 11,4
39 204 VUJICIC PHILIPPE MS4 7 TRI RUN FRONTIGNAN 2:06:55.07 39 67 0:13:54 3,0 41 1:23:55 12,9 74 0:29:04 10,3
40 220 COSTE JEAN-PIERRE MV1 11 NL 2:07:05.95 40 42 0:12:49 3,3 54 1:29:32 12,1 33 0:24:44 12,1
41 287 CHARTIER EMMANUELLE FS4 1 EAC Evreux 2:07:08.10 1 87 0:16:17 2,6 45 1:26:52 12,4 28 0:23:58 12,5
42 237 MEYNIER VINCENT MV4 4 TEAM SPORT CAMELEONS (NL) 2:08:14.49 41 74 0:14:33 2,9 46 1:27:02 12,4 56 0:26:37 11,3
43 215 MONTRIEUL MAUD FV1 1 Triathlon club La Grande Motte 2:08:33.51 2 38 0:12:36 3,3 51 1:29:13 12,1 59 0:26:44 11,2
44 301 ARTIAGA SYLVAIN MS4 8 MCT !! (USA Triathlon) NL 2:08:48.56 42 9 0:10:30 4,0 71 1:32:39 11,7 47 0:25:39 11,7
45 226 TRICHAUT DIDIER MS4 9 NL 2:09:41.25 43 34 0:12:19 3,4 60 1:30:11 12,0 62 0:27:09 11,0
46 284 CABOT PIERRE MV2 8 Loupian tri nature 2:10:15.40 44 86 0:16:12 2,6 55 1:29:33 12,1 31 0:24:29 12,2
47 307 AUTARD JEROME MV2 9 nimes trail attitude (NL) 2:10:57.30 45 65 0:13:44 3,1 63 1:30:36 11,9 55 0:26:36 11,3
48 247 GROU RENE MV5 1 LES CHAMEAUX DE BEZIERS 2:11:11.00 46 36 0:12:22 3,4 79 1:34:56 11,4 27 0:23:51 12,6
49 293 RUCCIONE MATHIEU MCA 3 Loupian tri nature 2:11:25.75 47 90 0:16:49 2,5 50 1:29:06 12,1 43 0:25:30 11,8
50 224 GRAULOU JONATHAN MS3 5 NL 2:11:31.34 48 32 0:12:12 3,4 73 1:33:35 11,5 48 0:25:43 11,7
51 318 GATCHITCH FRANCOIS MS4 10 NL 2:11:40.86 49 52 0:13:22 3,1 72 1:33:21 11,6 35 0:24:56 12,0
52 279 SIGNORINO CAMILLE MS3 6 NL 2:11:59.56 50 97 0:17:22 2,4 47 1:28:17 12,2 53 0:26:19 11,4
53 280 BOTTEMER DAVID MS2 5 NL 2:12:02.69 51 82 0:15:43 2,7 70 1:32:20 11,7 29 0:23:58 12,5
54 275 DECONCHY VINCENT MV1 12 NL 2:12:19.65 52 63 0:13:44 3,1 52 1:29:23 12,1 77 0:29:11 10,3
55 269 HACHET WILFRIED MS4 11 NL 2:12:35.59 53 95 0:17:06 2,5 69 1:32:11 11,7 22 0:23:17 12,9
56 216 GOURMAND JEAN-BAPTISTE MS3 7 NL 2:13:38.77 54 58 0:13:37 3,1 59 1:30:09 12,0 81 0:29:51 10,0
57 242 SIMONIN NICOLAS MV3 2 club alpin français (NL) 2:13:46.13 55 93 0:17:05 2,5 38 1:22:38 13,1 94 0:34:02 8,8
58 324 JOUVET MATTHIEU MS4 12 NL 2:13:59.35 56 44 0:13:02 3,2 80 1:35:35 11,3 41 0:25:21 11,8
59 246 COULON CÉDRIK MV1 13 NL 2:14:24.66 57 72 0:14:24 2,9 57 1:29:41 12,0 83 0:30:19 9,9
60 259 MALLEJAC GILLES MV2 10 NL 2:14:33.25 58 60 0:13:38 3,1 76 1:34:13 11,5 58 0:26:40 11,2
61 299 VIGNEAU VINCENT MV1 14 NL 2:14:43.75 59 37 0:12:29 3,4 87 1:39:06 10,9 19 0:23:06 13,0
62 264 SOULIÉ JÉRÔME MV2 11 NL 2:14:59.30 60 91 0:16:54 2,5 56 1:29:36 12,1 72 0:28:28 10,5
63 325 GOLA ARNAUD MS2 6 NL 2:16:06.96 61 53 0:13:26 3,1 84 1:36:37 11,2 51 0:26:02 11,5
64 211 MAJOULET OLIVIER MS4 13 NL 2:17:02.68 62 79 0:15:20 2,7 75 1:33:46 11,5 68 0:27:55 10,7
65 214 PY BERNARD MV7 1 MAT 2:17:22.57 63 41 0:12:46 3,3 67 1:31:23 11,8 90 0:33:12 9,0
66 261 SEJALON PATRICK MV2 12 NL 2:17:23.32 64 80 0:15:31 2,7 66 1:31:15 11,8 85 0:30:37 9,8
67 213 BRUNEL JEAN-MARC MV1 15 NL 2:17:51.89 65 14 0:10:57 3,8 92 1:43:26 10,4 24 0:23:28 12,8
68 217 JOUY SYLVAIN MS3 8 NL 2:18:08.74 66 50 0:13:12 3,2 33 1:21:58 13,2 102 0:42:57 7,0
69 210 BELOT PASCAL MV2 13 TOBESPORT 2:18:12.49 67 35 0:12:21 3,4 83 1:36:17 11,2 80 0:29:33 10,1
70 258 GALLE GRÉGORY MV1 16 NL 2:18:27.82 68 98 0:17:25 2,4 65 1:30:59 11,9 82 0:30:02 10,0
71 244 LAPORTE-FAURET FRÉDÉRIC MV3 3 NL 2:18:51.09 69 83 0:16:03 2,6 68 1:31:41 11,8 86 0:31:06 9,6
72 231 MALLET FRANÇOIS MV2 14 NL 2:18:56.04 70 56 0:13:34 3,1 61 1:30:28 11,9 95 0:34:52 8,6
73 309 PEREZ CAROLINE FS4 2 TRI RUN FRONTIGNAN 2:19:39.98 3 84 0:16:05 2,6 82 1:36:05 11,2 63 0:27:29 10,9
74 303 DANEL ARNAUD MS4 14 Waima Triathlon 2:20:48.82 71 94 0:17:06 2,5 58 1:30:04 12,0 91 0:33:38 8,9
75 257 MARTINEZ JEAN-FRANÇOIS MS4 15 NL 2:20:49.85 72 102 0:17:40 2,4 86 1:37:54 11,0 38 0:25:14 11,9
76 319 GAVEAU MAXIME MCA 4 Loupian tri nature 2:20:54.84 73 47 0:13:04 3,2 95 1:44:18 10,4 25 0:23:32 12,7
77 311 ESPEROU LIONEL MS2 7 NL 2:21:09.36 74 105 0:18:04 2,3 74 1:33:35 11,5 78 0:29:29 10,2
78 219 VUJICIC DAMIEN MS3 9 NL 2:21:28.52 75 100 0:17:30 2,4 81 1:35:46 11,3 71 0:28:11 10,6
79 232 LOUDCHER DIDIER MV3 4 Courir à Fabrègues (NL) 2:21:33.78 76 88 0:16:19 2,6 85 1:37:37 11,1 65 0:27:36 10,9
80 205 SOULIER MATHIAS MS2 8 MCT(NL) 2:22:02.67 77 26 0:11:57 3,5 97 1:44:53 10,3 37 0:25:11 11,9
81 218 PROUVOYEUR BAPTISTE MS2 9 VO2 Triathlon 2:22:34.12 78 33 0:12:13 3,4 89 1:41:44 10,6 73 0:28:35 10,5
82 281 PELLERANO CHRISTOPHE MV3 5 NL 2:22:59.01 79 73 0:14:31 2,9 77 1:34:28 11,4 93 0:33:58 8,8
83 241 REVERT ANTOINE MS3 10 NL 2:24:33.08 80 96 0:17:14 2,4 78 1:34:47 11,4 88 0:32:30 9,2
84 260 SPINNER CAROLINE FV1 2 NL 2:26:15.22 4 23 0:11:48 3,6 98 1:44:56 10,3 79 0:29:29 10,2
85 230 QUEUDOT PIERRE MS2 10 Sete Thau Triathlon 2:26:39.54 81 61 0:13:39 3,1 101 1:47:44 10,0 39 0:25:15 11,9
86 297 CLEMENTE GINO MS2 11 NL 2:29:19.34 82 101 0:17:39 2,4 94 1:43:46 10,4 67 0:27:53 10,8
87 315 KACEM KHALED MV3 6 Vedas endurance (NL) 2:29:57.76 83 109 0:21:00 2,0 90 1:41:57 10,6 61 0:27:00 11,1
88 234 RIGAUD STEPHANE MV1 17 NL 2:30:08.19 84 68 0:13:57 3,0 88 1:39:41 10,8 101 0:36:29 8,2
89 272 CORNIER BRICE MS3 11 NL 2:30:18.64 85 71 0:14:18 2,9 104 1:50:13 9,8 49 0:25:47 11,6
90 300 CAYLA OLIVIER MS3 12 NL 2:31:29.29 86 70 0:14:17 2,9 91 1:43:22 10,4 92 0:33:49 8,9
91 313 GIRARD DENIS MV3 7 NL 2:32:10.12 87 18 0:11:39 3,6 103 1:48:22 10,0 87 0:32:07 9,3
92 223 BOULARD SÉBASTIEN MV2 15 NL 2:33:45.35 88 66 0:13:49 3,0 96 1:44:47 10,3 96 0:35:08 8,5
93 243 VILLARET ROMAIN MS1 2 NL 2:34:42.12 89 54 0:13:27 3,1 106 1:52:04 9,6 76 0:29:10 10,3
94 240 BRUDNICKI THOMAS MS1 3 TriEMA (NL) 2:34:42.28 90 55 0:13:28 3,1 107 1:52:05 9,6 75 0:29:09 10,3
95 255 DE TARONI FLORENCE FV2 1 NL 2:34:49.82 5 108 0:19:10 2,2 99 1:45:13 10,3 84 0:30:25 9,9
96 253 PERROTIN CHRISTOPHE MV1 18 NL 2:34:57.41 91 104 0:18:01 2,3 105 1:50:17 9,8 57 0:26:38 11,3
97 286 PERRIN RÉMI MS3 13 Grand Narbonne triathlon 2:35:22.86 92 39 0:12:46 3,3 109 1:59:45 9,0 18 0:22:51 13,1
98 203 BENARD STÉPHANE MV2 16 NL 2:41:08.25 93             100 0:36:18 8,3
99 228 GODARD STEPHANE MV2 17 NL 2:42:09.01 94 81 0:15:32 2,7 93 1:43:27 10,4 103 0:43:08 7,0
100 239 RIVOLET VINCENT MV1 19 NL 2:42:51.01 95 107 0:19:05 2,2 102 1:48:14 10,0 99 0:35:30 8,4
101 291 ROSSARD YANN MS3 14 NL 2:45:27.34 96 77 0:14:43 2,9 108 1:55:19 9,4 98 0:35:24 8,5
102 292 ROSSARD YVES MV4 5 NL 2:45:27.70 97             97 0:35:19 8,5
103 298 LACROIX ALAIN MV3 8 Crocos d'airain nimes triathlon 2:47:50.81 98 78 0:15:02 2,8 110 1:59:45 9,0 89 0:33:03 9,1
104 222 BONANGE GUILLAUME MV1 20 NL 2:48:16.86 99             104 0:52:06 5,8
105 326 CAZALE BRICE MJU 1 NL 3:33:25.94 100 12 0:10:38 3,9            
106 200 LAVOINE EMERIC MCA 0 Loupian tri nature 0:00:00.00 DSQ 116 0:19:29 DSQ     DSQ     DSQ
107 227 MUNOZ RENAUD MS3 0 NL 0:00:00.00 DSQ     DSQ     DSQ     DSQ
108 265 CEDAT BERRUS NATHALY FV3 0 Crocos d'airain nimes triathlon 0:00:00.00 DSQ     DSQ     DSQ     DSQ
109 273 LE MORE JEAN-FRANCOIS MV3 0 MAT 0:00:00.00 DSQ 115 0:17:50 DSQ 6 0:59:21 DSQ     DSQ
110 277 ESCURIOLA BRUNO MV4 0 Grand Narbonne triathlon 0:00:00.00 DSQ 111 0:12:10 DSQ 13 1:05:02 DSQ 1 0:04:40 DSQ
111 282 FALAIS ALEXANDRE MS2 0 TOBESPORT 0:00:00.00 DSQ 112 0:12:13 DSQ     DSQ     DSQ
112 296 DURAND AYMERIC MS2 0 NL 0:00:00.00 DSQ 114 0:16:49 DSQ     DSQ     DSQ
113 302 DESTRIBATS GUY MV3 0 NL 0:00:00.00 DSQ 113 0:15:03 DSQ 9 1:02:12 DSQ     DSQ
114 314 HAREL JOHANNA FS2 0 Aqualove (NL) 0:00:00.00 DSQ 110 0:10:18 DSQ 15 1:06:58 DSQ     DSQ
115 212 JACQUES CHRISTIAN MV5 0 La Grande Motte (si pas licencié 2015 doit 2 euros) 0:00:00.00 DNS     DNS     DNS     DNS
116 225 CAPDEVILLE STÉPHANIE FV2 0 M2AM(NL) 0:00:00.00 DNS     DNS     DNS     DNS
117 263 VERRIER DOMINIQUE MV4 0 NL 0:00:00.00 DNS     DNS     DNS     DNS
118 268 OUHICHI MOUNIR MV1 0 Crocos d'airain nimes triathlon 0:00:00.00 DNS     DNS     DNS     DNS
119 308 CASTELL ROBERT MV7 0 Grand Narbonne triathlon 0:00:00.00 DNS     DNS     DNS     DNS
120 207 LAPIERRE CATHERINE FV1 0 NL 0:00:00.00 DNF 48 0:13:04 DNF 100 1:46:29 DNF     DNF
121 238 NICOLAS STÉPHANE MV2 0 Bol d'air Gignacois (NL) 0:00:00.00 DNF 106 0:18:22 DNF     DNF     DNF
122 249 SEYNAT NICOLAS MS3 0 LES CHAMEAUX DE BEZIERS 0:00:00.00 DNF 3 0:09:53 DNF 36 1:22:19 DNF     DNF
123 250 GUIET GRÉGORY MS3 0 NL 0:00:00.00 DNF 22 0:11:46 DNF 30 1:21:23 DNF     DNF
124 256 BON OLIVIER MS3 0 NL 0:00:00.00 DNF 16 0:11:38 DNF 23 1:14:08 DNF     DNF
125 278 FANTIN JEROME MV1 0 TC Narbonnais 0:00:00.00 DNF 40 0:12:46 DNF 37 1:22:27 DNF     DNF